sensor_id;sensor_type;location;lat;lon;timestamp;P1;durP1;ratioP1;P2;durP2;ratioP2
76357;SDS011;65185;21.060;105.826;2024-03-17T00:01:36;109.20;;;56.63;;
76357;SDS011;65185;21.060;105.826;2024-03-17T00:06:45;106.70;;;57.28;;
76357;SDS011;65185;21.060;105.826;2024-03-17T00:09:12;104.13;;;56.97;;
76357;SDS011;65185;21.060;105.826;2024-03-17T00:11:45;108.63;;;56.80;;
76357;SDS011;65185;21.060;105.826;2024-03-17T00:14:41;119.18;;;62.55;;
76357;SDS011;65185;21.060;105.826;2024-03-17T00:17:16;110.60;;;55.95;;
76357;SDS011;65185;21.060;105.826;2024-03-17T00:19:46;107.72;;;57.55;;
76357;SDS011;65185;21.060;105.826;2024-03-17T00:25:19;102.95;;;54.95;;
76357;SDS011;65185;21.060;105.826;2024-03-17T00:27:52;105.22;;;54.55;;
76357;SDS011;65185;21.060;105.826;2024-03-17T00:33:32;112.50;;;56.60;;
76357;SDS011;65185;21.060;105.826;2024-03-17T00:38:46;99.72;;;56.42;;
76357;SDS011;65185;21.060;105.826;2024-03-17T00:41:28;103.85;;;54.10;;
76357;SDS011;65185;21.060;105.826;2024-03-17T00:44:16;96.00;;;51.78;;
76357;SDS011;65185;21.060;105.826;2024-03-17T00:46:47;96.68;;;51.38;;
76357;SDS011;65185;21.060;105.826;2024-03-17T00:52:07;102.55;;;56.72;;
76357;SDS011;65185;21.060;105.826;2024-03-17T00:54:34;99.38;;;53.60;;
76357;SDS011;65185;21.060;105.826;2024-03-17T00:57:01;98.88;;;53.05;;
76357;SDS011;65185;21.060;105.826;2024-03-17T00:59:38;108.30;;;55.30;;
76357;SDS011;65185;21.060;105.826;2024-03-17T01:02:13;107.93;;;59.65;;
76357;SDS011;65185;21.060;105.826;2024-03-17T01:04:43;103.05;;;55.30;;
76357;SDS011;65185;21.060;105.826;2024-03-17T01:07:16;108.53;;;56.47;;
76357;SDS011;65185;21.060;105.826;2024-03-17T01:09:43;102.32;;;55.28;;
76357;SDS011;65185;21.060;105.826;2024-03-17T01:12:14;96.03;;;52.45;;
76357;SDS011;65185;21.060;105.826;2024-03-17T01:14:45;98.05;;;53.55;;
76357;SDS011;65185;21.060;105.826;2024-03-17T01:17:21;94.45;;;53.50;;
76357;SDS011;65185;21.060;105.826;2024-03-17T01:19:58;94.40;;;52.83;;
76357;SDS011;65185;21.060;105.826;2024-03-17T01:22:35;91.97;;;51.20;;
76357;SDS011;65185;21.060;105.826;2024-03-17T01:25:02;96.00;;;51.70;;
76357;SDS011;65185;21.060;105.826;2024-03-17T01:28:07;94.93;;;51.30;;
76357;SDS011;65185;21.060;105.826;2024-03-17T01:30:37;88.10;;;48.78;;
76357;SDS011;65185;21.060;105.826;2024-03-17T01:33:31;83.18;;;48.17;;
76357;SDS011;65185;21.060;105.826;2024-03-17T01:36:01;78.93;;;45.88;;
76357;SDS011;65185;21.060;105.826;2024-03-17T01:38:28;77.82;;;47.30;;
76357;SDS011;65185;21.060;105.826;2024-03-17T01:40:55;73.22;;;44.13;;
76357;SDS011;65185;21.060;105.826;2024-03-17T01:43:39;72.95;;;42.75;;
76357;SDS011;65185;21.060;105.826;2024-03-17T01:46:23;73.95;;;44.22;;
76357;SDS011;65185;21.060;105.826;2024-03-17T01:48:57;66.25;;;41.13;;
76357;SDS011;65185;21.060;105.826;2024-03-17T01:51:45;64.88;;;40.00;;
76357;SDS011;65185;21.060;105.826;2024-03-17T01:54:34;63.35;;;39.78;;
76357;SDS011;65185;21.060;105.826;2024-03-17T01:57:37;56.25;;;35.30;;
76357;SDS011;65185;21.060;105.826;2024-03-17T02:00:05;57.85;;;38.45;;
76357;SDS011;65185;21.060;105.826;2024-03-17T02:03:39;52.35;;;34.33;;
76357;SDS011;65185;21.060;105.826;2024-03-17T02:05:48;53.58;;;36.25;;
76357;SDS011;65185;21.060;105.826;2024-03-17T02:11:30;61.20;;;39.10;;
76357;SDS011;65185;21.060;105.826;2024-03-17T02:13:58;61.25;;;37.97;;
76357;SDS011;65185;21.060;105.826;2024-03-17T02:16:47;66.35;;;39.22;;
76357;SDS011;65185;21.060;105.826;2024-03-17T02:19:25;61.50;;;38.88;;
76357;SDS011;65185;21.060;105.826;2024-03-17T02:21:52;70.55;;;42.35;;
76357;SDS011;65185;21.060;105.826;2024-03-17T02:24:40;73.00;;;44.22;;
76357;SDS011;65185;21.060;105.826;2024-03-17T02:27:07;78.30;;;47.55;;
76357;SDS011;65185;21.060;105.826;2024-03-17T02:32:41;83.18;;;46.60;;
76357;SDS011;65185;21.060;105.826;2024-03-17T02:35:24;89.10;;;49.83;;
76357;SDS011;65185;21.060;105.826;2024-03-17T02:41:01;80.57;;;44.78;;
76357;SDS011;65185;21.060;105.826;2024-03-17T02:43:41;81.53;;;45.58;;
76357;SDS011;65185;21.060;105.826;2024-03-17T02:46:25;78.68;;;46.50;;
76357;SDS011;65185;21.060;105.826;2024-03-17T02:49:17;73.97;;;42.72;;
76357;SDS011;65185;21.060;105.826;2024-03-17T02:51:48;72.70;;;42.35;;
76357;SDS011;65185;21.060;105.826;2024-03-17T02:54:43;75.25;;;43.85;;
76357;SDS011;65185;21.060;105.826;2024-03-17T02:57:18;74.10;;;41.85;;
76357;SDS011;65185;21.060;105.826;2024-03-17T03:00:01;72.53;;;41.25;;
76357;SDS011;65185;21.060;105.826;2024-03-17T03:02:30;72.88;;;43.40;;
76357;SDS011;65185;21.060;105.826;2024-03-17T03:08:39;71.60;;;40.50;;
76357;SDS011;65185;21.060;105.826;2024-03-17T03:11:14;75.32;;;41.92;;
76357;SDS011;65185;21.060;105.826;2024-03-17T03:13:54;75.28;;;42.17;;
76357;SDS011;65185;21.060;105.826;2024-03-17T03:16:28;80.05;;;44.25;;
76357;SDS011;65185;21.060;105.826;2024-03-17T03:18:54;72.65;;;41.22;;
76357;SDS011;65185;21.060;105.826;2024-03-17T03:24:52;73.88;;;40.55;;
76357;SDS011;65185;21.060;105.826;2024-03-17T03:27:19;77.63;;;44.08;;
76357;SDS011;65185;21.060;105.826;2024-03-17T03:29:50;79.72;;;43.97;;
76357;SDS011;65185;21.060;105.826;2024-03-17T03:32:21;74.25;;;42.13;;
76357;SDS011;65185;21.060;105.826;2024-03-17T03:34:48;76.57;;;42.63;;
76357;SDS011;65185;21.060;105.826;2024-03-17T03:37:15;75.40;;;41.35;;
76357;SDS011;65185;21.060;105.826;2024-03-17T03:39:53;80.53;;;45.00;;
76357;SDS011;65185;21.060;105.826;2024-03-17T03:42:20;81.60;;;43.33;;
76357;SDS011;65185;21.060;105.826;2024-03-17T03:44:52;80.07;;;42.28;;
76357;SDS011;65185;21.060;105.826;2024-03-17T03:47:19;80.00;;;43.03;;
76357;SDS011;65185;21.060;105.826;2024-03-17T03:49:50;78.97;;;42.63;;
76357;SDS011;65185;21.060;105.826;2024-03-17T03:52:20;81.85;;;43.33;;
76357;SDS011;65185;21.060;105.826;2024-03-17T03:55:03;80.97;;;44.35;;
76357;SDS011;65185;21.060;105.826;2024-03-17T03:57:43;81.05;;;43.40;;
76357;SDS011;65185;21.060;105.826;2024-03-17T04:00:30;84.90;;;44.33;;
76357;SDS011;65185;21.060;105.826;2024-03-17T04:03:00;83.15;;;44.65;;
76357;SDS011;65185;21.060;105.826;2024-03-17T04:05:34;83.82;;;44.65;;
76357;SDS011;65185;21.060;105.826;2024-03-17T04:08:04;81.63;;;43.45;;
76357;SDS011;65185;21.060;105.826;2024-03-17T04:10:57;80.82;;;42.35;;
76357;SDS011;65185;21.060;105.826;2024-03-17T04:13:27;95.70;;;48.60;;
76357;SDS011;65185;21.060;105.826;2024-03-17T04:16:16;94.80;;;48.85;;
76357;SDS011;65185;21.060;105.826;2024-03-17T04:18:49;87.57;;;46.53;;
76357;SDS011;65185;21.060;105.826;2024-03-17T04:21:21;92.90;;;46.65;;
76357;SDS011;65185;21.060;105.826;2024-03-17T04:23:52;94.03;;;48.83;;
76357;SDS011;65185;21.060;105.826;2024-03-17T04:26:50;86.65;;;45.78;;
76357;SDS011;65185;21.060;105.826;2024-03-17T04:32:08;91.90;;;47.17;;
76357;SDS011;65185;21.060;105.826;2024-03-17T04:34:38;87.47;;;44.88;;
76357;SDS011;65185;21.060;105.826;2024-03-17T04:37:20;96.68;;;50.60;;
76357;SDS011;65185;21.060;105.826;2024-03-17T04:39:48;84.13;;;44.97;;
76357;SDS011;65185;21.060;105.826;2024-03-17T04:42:53;89.57;;;47.28;;
76357;SDS011;65185;21.060;105.826;2024-03-17T04:45:56;90.40;;;48.33;;
76357;SDS011;65185;21.060;105.826;2024-03-17T04:48:37;85.63;;;47.90;;
76357;SDS011;65185;21.060;105.826;2024-03-17T04:51:08;84.25;;;46.38;;
76357;SDS011;65185;21.060;105.826;2024-03-17T04:53:53;86.95;;;44.35;;
76357;SDS011;65185;21.060;105.826;2024-03-17T04:56:38;92.90;;;46.78;;
76357;SDS011;65185;21.060;105.826;2024-03-17T04:59:25;88.22;;;47.63;;
76357;SDS011;65185;21.060;105.826;2024-03-17T05:01:53;86.00;;;46.15;;
76357;SDS011;65185;21.060;105.826;2024-03-17T05:04:24;79.75;;;45.20;;
76357;SDS011;65185;21.060;105.826;2024-03-17T05:07:21;85.00;;;45.42;;
76357;SDS011;65185;21.060;105.826;2024-03-17T05:10:01;80.30;;;44.10;;
76357;SDS011;65185;21.060;105.826;2024-03-17T05:12:41;83.63;;;44.33;;
76357;SDS011;65185;21.060;105.826;2024-03-17T05:15:14;93.82;;;50.40;;
76357;SDS011;65185;21.060;105.826;2024-03-17T05:20:31;96.60;;;53.45;;
76357;SDS011;65185;21.060;105.826;2024-03-17T05:23:11;94.47;;;49.92;;
76357;SDS011;65185;21.060;105.826;2024-03-17T05:25:38;88.05;;;49.55;;
76357;SDS011;65185;21.060;105.826;2024-03-17T05:28:28;100.10;;;51.38;;
76357;SDS011;65185;21.060;105.826;2024-03-17T05:30:59;97.07;;;53.55;;
76357;SDS011;65185;21.060;105.826;2024-03-17T05:33:33;93.30;;;49.63;;
76357;SDS011;65185;21.060;105.826;2024-03-17T05:36:04;111.50;;;56.83;;
76357;SDS011;65185;21.060;105.826;2024-03-17T05:38:45;109.95;;;55.80;;
76357;SDS011;65185;21.060;105.826;2024-03-17T05:41:18;122.38;;;57.38;;
76357;SDS011;65185;21.060;105.826;2024-03-17T05:43:48;121.00;;;56.70;;
76357;SDS011;65185;21.060;105.826;2024-03-17T05:46:33;120.10;;;58.03;;
76357;SDS011;65185;21.060;105.826;2024-03-17T05:49:03;121.22;;;57.58;;
76357;SDS011;65185;21.060;105.826;2024-03-17T05:51:43;113.72;;;55.70;;
76357;SDS011;65185;21.060;105.826;2024-03-17T05:54:24;113.80;;;55.28;;
76357;SDS011;65185;21.060;105.826;2024-03-17T05:56:51;115.20;;;55.28;;
76357;SDS011;65185;21.060;105.826;2024-03-17T05:59:24;141.55;;;64.97;;
76357;SDS011;65185;21.060;105.826;2024-03-17T06:01:56;128.63;;;61.88;;
76357;SDS011;65185;21.060;105.826;2024-03-17T06:04:23;124.15;;;59.35;;
76357;SDS011;65185;21.060;105.826;2024-03-17T06:07:01;139.30;;;63.25;;
76357;SDS011;65185;21.060;105.826;2024-03-17T06:09:32;141.88;;;64.78;;
76357;SDS011;65185;21.060;105.826;2024-03-17T06:12:15;139.40;;;62.95;;
76357;SDS011;65185;21.060;105.826;2024-03-17T06:14:48;117.28;;;56.60;;
76357;SDS011;65185;21.060;105.826;2024-03-17T06:17:18;123.82;;;60.20;;
76357;SDS011;65185;21.060;105.826;2024-03-17T06:19:52;138.05;;;67.13;;
76357;SDS011;65185;21.060;105.826;2024-03-17T06:22:22;152.23;;;69.93;;
76357;SDS011;65185;21.060;105.826;2024-03-17T06:24:50;142.15;;;66.40;;
76357;SDS011;65185;21.060;105.826;2024-03-17T06:27:20;146.18;;;69.35;;
76357;SDS011;65185;21.060;105.826;2024-03-17T06:29:47;128.60;;;63.88;;
76357;SDS011;65185;21.060;105.826;2024-03-17T06:32:14;125.47;;;59.75;;
76357;SDS011;65185;21.060;105.826;2024-03-17T06:34:55;149.55;;;67.43;;
76357;SDS011;65185;21.060;105.826;2024-03-17T06:37:39;129.35;;;62.03;;
76357;SDS011;65185;21.060;105.826;2024-03-17T06:40:14;143.05;;;69.38;;
76357;SDS011;65185;21.060;105.826;2024-03-17T06:42:58;144.10;;;67.32;;
76357;SDS011;65185;21.060;105.826;2024-03-17T06:45:25;127.88;;;62.80;;
76357;SDS011;65185;21.060;105.826;2024-03-17T06:47:57;133.48;;;66.78;;
76357;SDS011;65185;21.060;105.826;2024-03-17T06:50:24;124.65;;;61.15;;
76357;SDS011;65185;21.060;105.826;2024-03-17T06:53:15;117.78;;;59.72;;
76357;SDS011;65185;21.060;105.826;2024-03-17T06:55:42;116.57;;;59.40;;
76357;SDS011;65185;21.060;105.826;2024-03-17T06:58:13;114.63;;;58.33;;
76357;SDS011;65185;21.060;105.826;2024-03-17T07:00:59;119.70;;;60.65;;
76357;SDS011;65185;21.060;105.826;2024-03-17T07:03:32;133.82;;;67.00;;
76357;SDS011;65185;21.060;105.826;2024-03-17T07:06:20;133.43;;;67.28;;
76357;SDS011;65185;21.060;105.826;2024-03-17T07:09:13;127.45;;;63.45;;
76357;SDS011;65185;21.060;105.826;2024-03-17T07:11:44;131.70;;;65.22;;
76357;SDS011;65185;21.060;105.826;2024-03-17T07:14:14;141.23;;;72.00;;
76357;SDS011;65185;21.060;105.826;2024-03-17T07:16:54;131.70;;;67.18;;
76357;SDS011;65185;21.060;105.826;2024-03-17T07:19:25;123.00;;;64.63;;
76357;SDS011;65185;21.060;105.826;2024-03-17T07:22:35;134.43;;;69.70;;
76357;SDS011;65185;21.060;105.826;2024-03-17T07:25:11;139.95;;;72.63;;
76357;SDS011;65185;21.060;105.826;2024-03-17T07:27:38;146.13;;;73.93;;
76357;SDS011;65185;21.060;105.826;2024-03-17T07:30:09;141.18;;;70.32;;
76357;SDS011;65185;21.060;105.826;2024-03-17T07:32:47;121.28;;;65.57;;
76357;SDS011;65185;21.060;105.826;2024-03-17T07:35:18;120.30;;;64.53;;
76357;SDS011;65185;21.060;105.826;2024-03-17T07:37:51;133.52;;;69.38;;
76357;SDS011;65185;21.060;105.826;2024-03-17T07:40:21;123.75;;;63.80;;
76357;SDS011;65185;21.060;105.826;2024-03-17T07:42:57;120.70;;;63.50;;
76357;SDS011;65185;21.060;105.826;2024-03-17T07:45:24;119.63;;;63.25;;
76357;SDS011;65185;21.060;105.826;2024-03-17T07:47:54;112.68;;;61.83;;
76357;SDS011;65185;21.060;105.826;2024-03-17T07:51:09;117.38;;;62.20;;
76357;SDS011;65185;21.060;105.826;2024-03-17T07:56:47;118.20;;;62.45;;
76357;SDS011;65185;21.060;105.826;2024-03-17T07:59:27;120.00;;;65.93;;
76357;SDS011;65185;21.060;105.826;2024-03-17T08:04:56;112.38;;;64.07;;
76357;SDS011;65185;21.060;105.826;2024-03-17T08:07:34;106.35;;;60.08;;
76357;SDS011;65185;21.060;105.826;2024-03-17T08:10:01;102.28;;;57.60;;
76357;SDS011;65185;21.060;105.826;2024-03-17T08:12:29;94.63;;;55.90;;
76357;SDS011;65185;21.060;105.826;2024-03-17T08:14:59;100.32;;;57.42;;
76357;SDS011;65185;21.060;105.826;2024-03-17T08:17:30;93.20;;;54.38;;
76357;SDS011;65185;21.060;105.826;2024-03-17T08:22:53;83.15;;;48.92;;
76357;SDS011;65185;21.060;105.826;2024-03-17T08:25:21;84.82;;;50.08;;
76357;SDS011;65185;21.060;105.826;2024-03-17T08:28:08;85.88;;;48.70;;
76357;SDS011;65185;21.060;105.826;2024-03-17T08:33:52;75.85;;;44.55;;
76357;SDS011;65185;21.060;105.826;2024-03-17T08:36:19;82.28;;;47.33;;
76357;SDS011;65185;21.060;105.826;2024-03-17T08:38:47;81.50;;;47.70;;
76357;SDS011;65185;21.060;105.826;2024-03-17T08:41:16;73.18;;;43.33;;
76357;SDS011;65185;21.060;105.826;2024-03-17T08:44:01;69.72;;;41.80;;
76357;SDS011;65185;21.060;105.826;2024-03-17T08:46:42;69.15;;;39.00;;
76357;SDS011;65185;21.060;105.826;2024-03-17T08:49:09;67.35;;;41.85;;
76357;SDS011;65185;21.060;105.826;2024-03-17T08:51:53;68.47;;;43.22;;
76357;SDS011;65185;21.060;105.826;2024-03-17T08:54:20;70.05;;;42.50;;
76357;SDS011;65185;21.060;105.826;2024-03-17T08:56:47;67.80;;;41.25;;
76357;SDS011;65185;21.060;105.826;2024-03-17T08:59:26;74.80;;;44.95;;
76357;SDS011;65185;21.060;105.826;2024-03-17T09:02:11;74.50;;;44.55;;
76357;SDS011;65185;21.060;105.826;2024-03-17T09:04:43;83.45;;;50.08;;
76357;SDS011;65185;21.060;105.826;2024-03-17T09:07:13;77.95;;;45.72;;
76357;SDS011;65185;21.060;105.826;2024-03-17T09:09:47;82.72;;;50.15;;
76357;SDS011;65185;21.060;105.826;2024-03-17T09:12:28;81.28;;;48.28;;
76357;SDS011;65185;21.060;105.826;2024-03-17T09:15:04;84.97;;;50.67;;
76357;SDS011;65185;21.060;105.826;2024-03-17T09:17:40;87.95;;;53.15;;
76357;SDS011;65185;21.060;105.826;2024-03-17T09:20:11;82.78;;;49.45;;
76357;SDS011;65185;21.060;105.826;2024-03-17T09:25:09;72.95;;;45.13;;
76357;SDS011;65185;21.060;105.826;2024-03-17T09:27:40;77.10;;;45.45;;
76357;SDS011;65185;21.060;105.826;2024-03-17T09:30:16;87.20;;;52.38;;
76357;SDS011;65185;21.060;105.826;2024-03-17T09:35:33;94.55;;;56.15;;
76357;SDS011;65185;21.060;105.826;2024-03-17T09:38:12;88.53;;;52.75;;
76357;SDS011;65185;21.060;105.826;2024-03-17T09:40:46;86.72;;;51.80;;
76357;SDS011;65185;21.060;105.826;2024-03-17T09:43:28;86.35;;;52.05;;
76357;SDS011;65185;21.060;105.826;2024-03-17T09:46:27;104.85;;;59.17;;
76357;SDS011;65185;21.060;105.826;2024-03-17T09:49:00;102.22;;;59.55;;
76357;SDS011;65185;21.060;105.826;2024-03-17T09:51:27;105.88;;;60.35;;
76357;SDS011;65185;21.060;105.826;2024-03-17T09:53:57;104.05;;;61.92;;
76357;SDS011;65185;21.060;105.826;2024-03-17T09:56:35;104.13;;;60.70;;
76357;SDS011;65185;21.060;105.826;2024-03-17T09:59:13;97.88;;;57.05;;
76357;SDS011;65185;21.060;105.826;2024-03-17T10:01:40;95.80;;;60.25;;
76357;SDS011;65185;21.060;105.826;2024-03-17T10:04:14;94.60;;;58.17;;
76357;SDS011;65185;21.060;105.826;2024-03-17T10:07:03;93.20;;;55.17;;
76357;SDS011;65185;21.060;105.826;2024-03-17T10:09:30;88.40;;;52.45;;
76357;SDS011;65185;21.060;105.826;2024-03-17T10:11:58;76.88;;;49.13;;
76357;SDS011;65185;21.060;105.826;2024-03-17T10:14:33;82.25;;;50.00;;
76357;SDS011;65185;21.060;105.826;2024-03-17T10:17:07;89.53;;;53.85;;
76357;SDS011;65185;21.060;105.826;2024-03-17T10:19:39;89.20;;;55.33;;
76357;SDS011;65185;21.060;105.826;2024-03-17T10:22:26;94.00;;;55.20;;
76357;SDS011;65185;21.060;105.826;2024-03-17T10:25:00;102.55;;;56.42;;
76357;SDS011;65185;21.060;105.826;2024-03-17T10:27:47;93.68;;;56.78;;
76357;SDS011;65185;21.060;105.826;2024-03-17T10:30:18;94.97;;;54.97;;
76357;SDS011;65185;21.060;105.826;2024-03-17T10:33:02;90.95;;;51.95;;
76357;SDS011;65185;21.060;105.826;2024-03-17T10:35:35;95.47;;;53.67;;
76357;SDS011;65185;21.060;105.826;2024-03-17T10:38:30;92.10;;;52.17;;
76357;SDS011;65185;21.060;105.826;2024-03-17T10:41:07;91.40;;;52.20;;
76357;SDS011;65185;21.060;105.826;2024-03-17T10:43:41;93.10;;;51.50;;
76357;SDS011;65185;21.060;105.826;2024-03-17T10:46:12;91.10;;;49.63;;
76357;SDS011;65185;21.060;105.826;2024-03-17T10:49:15;84.93;;;47.35;;
76357;SDS011;65185;21.060;105.826;2024-03-17T10:51:48;85.72;;;48.40;;
76357;SDS011;65185;21.060;105.826;2024-03-17T11:00:16;85.50;;;49.00;;
76357;SDS011;65185;21.060;105.826;2024-03-17T11:05:48;102.78;;;57.63;;
76357;SDS011;65185;21.060;105.826;2024-03-17T11:08:17;103.70;;;55.72;;
76357;SDS011;65185;21.060;105.826;2024-03-17T11:10:51;113.40;;;58.03;;
76357;SDS011;65185;21.060;105.826;2024-03-17T11:13:42;105.07;;;56.92;;
76357;SDS011;65185;21.060;105.826;2024-03-17T11:19:07;104.80;;;56.42;;
76357;SDS011;65185;21.060;105.826;2024-03-17T11:21:49;104.93;;;56.15;;
76357;SDS011;65185;21.060;105.826;2024-03-17T11:24:36;100.38;;;55.33;;
76357;SDS011;65185;21.060;105.826;2024-03-17T11:27:38;103.63;;;54.38;;
76357;SDS011;65185;21.060;105.826;2024-03-17T11:52:24;133.52;;;63.90;;
76357;SDS011;65185;21.060;105.826;2024-03-17T11:55:16;126.70;;;61.25;;
76357;SDS011;65185;21.060;105.826;2024-03-17T11:58:01;124.13;;;63.28;;
76357;SDS011;65185;21.060;105.826;2024-03-17T12:00:46;116.10;;;62.75;;
76357;SDS011;65185;21.060;105.826;2024-03-17T12:03:41;111.50;;;56.58;;
76357;SDS011;65185;21.060;105.826;2024-03-17T12:06:14;107.72;;;57.85;;
76357;SDS011;65185;21.060;105.826;2024-03-17T12:08:44;116.65;;;61.80;;
76357;SDS011;65185;21.060;105.826;2024-03-17T12:11:36;131.05;;;67.10;;
76357;SDS011;65185;21.060;105.826;2024-03-17T12:14:23;121.30;;;59.88;;
76357;SDS011;65185;21.060;105.826;2024-03-17T12:16:59;111.47;;;58.15;;
76357;SDS011;65185;21.060;105.826;2024-03-17T12:19:37;110.63;;;54.95;;
76357;SDS011;65185;21.060;105.826;2024-03-17T12:22:46;111.53;;;58.28;;
76357;SDS011;65185;21.060;105.826;2024-03-17T12:25:27;118.80;;;59.05;;
76357;SDS011;65185;21.060;105.826;2024-03-17T12:28:15;122.18;;;61.22;;
76357;SDS011;65185;21.060;105.826;2024-03-17T12:30:52;122.45;;;61.45;;
76357;SDS011;65185;21.060;105.826;2024-03-17T12:33:34;132.75;;;63.95;;
76357;SDS011;65185;21.060;105.826;2024-03-17T12:36:12;117.80;;;60.58;;
76357;SDS011;65185;21.060;105.826;2024-03-17T12:39:09;114.03;;;59.05;;
76357;SDS011;65185;21.060;105.826;2024-03-17T12:41:37;105.70;;;56.88;;
76357;SDS011;65185;21.060;105.826;2024-03-17T12:44:24;90.65;;;49.72;;
76357;SDS011;65185;21.060;105.826;2024-03-17T12:47:14;90.18;;;51.03;;
76357;SDS011;65185;21.060;105.826;2024-03-17T12:50:01;89.47;;;50.92;;
76357;SDS011;65185;21.060;105.826;2024-03-17T12:52:55;88.25;;;48.25;;
76357;SDS011;65185;21.060;105.826;2024-03-17T12:55:22;83.43;;;46.53;;
76357;SDS011;65185;21.060;105.826;2024-03-17T12:58:34;92.50;;;52.80;;
76357;SDS011;65185;21.060;105.826;2024-03-17T13:01:22;92.47;;;49.45;;
76357;SDS011;65185;21.060;105.826;2024-03-17T13:06:45;103.93;;;54.65;;
76357;SDS011;65185;21.060;105.826;2024-03-17T13:09:27;98.15;;;53.38;;
76357;SDS011;65185;21.060;105.826;2024-03-17T13:11:57;95.78;;;53.17;;
76357;SDS011;65185;21.060;105.826;2024-03-17T13:14:28;108.18;;;56.33;;
76357;SDS011;65185;21.060;105.826;2024-03-17T13:17:02;106.45;;;54.70;;
76357;SDS011;65185;21.060;105.826;2024-03-17T13:20:00;103.03;;;55.45;;
76357;SDS011;65185;21.060;105.826;2024-03-17T13:22:38;105.10;;;57.22;;
76357;SDS011;65185;21.060;105.826;2024-03-17T13:25:25;114.30;;;62.35;;
76357;SDS011;65185;21.060;105.826;2024-03-17T13:28:00;107.30;;;58.65;;
76357;SDS011;65185;21.060;105.826;2024-03-17T13:30:48;115.95;;;63.95;;
76357;SDS011;65185;21.060;105.826;2024-03-17T13:33:26;107.38;;;58.45;;
76357;SDS011;65185;21.060;105.826;2024-03-17T13:35:54;98.43;;;56.40;;
76357;SDS011;65185;21.060;105.826;2024-03-17T13:38:53;104.93;;;57.85;;
76357;SDS011;65185;21.060;105.826;2024-03-17T13:41:24;102.65;;;59.60;;
76357;SDS011;65185;21.060;105.826;2024-03-17T13:44:00;101.35;;;56.78;;
76357;SDS011;65185;21.060;105.826;2024-03-17T13:46:30;103.97;;;61.17;;
76357;SDS011;65185;21.060;105.826;2024-03-17T13:49:08;98.50;;;58.45;;
76357;SDS011;65185;21.060;105.826;2024-03-17T13:51:35;99.78;;;57.75;;
76357;SDS011;65185;21.060;105.826;2024-03-17T13:54:25;93.32;;;52.60;;
76357;SDS011;65185;21.060;105.826;2024-03-17T13:57:01;88.10;;;50.42;;
76357;SDS011;65185;21.060;105.826;2024-03-17T13:59:30;85.38;;;50.35;;
76357;SDS011;65185;21.060;105.826;2024-03-17T14:02:01;97.93;;;57.88;;
76357;SDS011;65185;21.060;105.826;2024-03-17T14:04:46;92.38;;;56.22;;
76357;SDS011;65185;21.060;105.826;2024-03-17T14:07:17;89.70;;;53.85;;
76357;SDS011;65185;21.060;105.826;2024-03-17T14:13:01;88.13;;;52.00;;
76357;SDS011;65185;21.060;105.826;2024-03-17T14:15:34;81.93;;;48.88;;
76357;SDS011;65185;21.060;105.826;2024-03-17T14:18:07;81.28;;;48.20;;
76357;SDS011;65185;21.060;105.826;2024-03-17T14:21:09;80.00;;;50.17;;
76357;SDS011;65185;21.060;105.826;2024-03-17T14:29:13;89.43;;;51.55;;
76357;SDS011;65185;21.060;105.826;2024-03-17T14:31:46;82.30;;;50.75;;
76357;SDS011;65185;21.060;105.826;2024-03-17T14:34:19;80.60;;;47.22;;
76357;SDS011;65185;21.060;105.826;2024-03-17T14:36:46;83.55;;;47.17;;
76357;SDS011;65185;21.060;105.826;2024-03-17T14:39:13;86.60;;;48.30;;
76357;SDS011;65185;21.060;105.826;2024-03-17T14:41:57;84.88;;;48.55;;
76357;SDS011;65185;21.060;105.826;2024-03-17T14:44:25;95.00;;;51.55;;
76357;SDS011;65185;21.060;105.826;2024-03-17T14:46:52;86.85;;;49.28;;
76357;SDS011;65185;21.060;105.826;2024-03-17T14:49:25;85.85;;;48.15;;
76357;SDS011;65185;21.060;105.826;2024-03-17T14:51:53;82.90;;;47.92;;
76357;SDS011;65185;21.060;105.826;2024-03-17T14:54:40;87.95;;;48.53;;
76357;SDS011;65185;21.060;105.826;2024-03-17T14:57:38;88.82;;;50.42;;
76357;SDS011;65185;21.060;105.826;2024-03-17T15:00:30;79.28;;;47.03;;
76357;SDS011;65185;21.060;105.826;2024-03-17T15:02:57;84.63;;;47.05;;
76357;SDS011;65185;21.060;105.826;2024-03-17T15:05:24;92.38;;;50.30;;
76357;SDS011;65185;21.060;105.826;2024-03-17T15:07:56;86.22;;;49.42;;
76357;SDS011;65185;21.060;105.826;2024-03-17T15:10:23;97.07;;;54.08;;
76357;SDS011;65185;21.060;105.826;2024-03-17T15:13:13;99.13;;;56.33;;
76357;SDS011;65185;21.060;105.826;2024-03-17T15:15:46;92.25;;;50.05;;
76357;SDS011;65185;21.060;105.826;2024-03-17T15:18:16;91.55;;;49.63;;
76357;SDS011;65185;21.060;105.826;2024-03-17T15:20:56;98.03;;;54.72;;
76357;SDS011;65185;21.060;105.826;2024-03-17T15:28:51;101.97;;;52.40;;
76357;SDS011;65185;21.060;105.826;2024-03-17T15:31:41;99.03;;;52.30;;
76357;SDS011;65185;21.060;105.826;2024-03-17T15:34:08;92.38;;;49.28;;
76357;SDS011;65185;21.060;105.826;2024-03-17T15:36:47;104.22;;;52.13;;
76357;SDS011;65185;21.060;105.826;2024-03-17T15:39:18;94.05;;;49.78;;
76357;SDS011;65185;21.060;105.826;2024-03-17T15:41:49;100.10;;;52.50;;
76357;SDS011;65185;21.060;105.826;2024-03-17T15:44:22;101.07;;;51.10;;
76357;SDS011;65185;21.060;105.826;2024-03-17T15:47:03;101.72;;;53.05;;
76357;SDS011;65185;21.060;105.826;2024-03-17T15:49:34;99.95;;;51.05;;
76357;SDS011;65185;21.060;105.826;2024-03-17T15:52:06;104.18;;;52.63;;
76357;SDS011;65185;21.060;105.826;2024-03-17T15:54:37;105.32;;;52.35;;
76357;SDS011;65185;21.060;105.826;2024-03-17T15:57:34;107.72;;;50.58;;
76357;SDS011;65185;21.060;105.826;2024-03-17T16:00:12;96.97;;;51.45;;
76357;SDS011;65185;21.060;105.826;2024-03-17T16:02:39;97.13;;;49.67;;
76357;SDS011;65185;21.060;105.826;2024-03-17T16:05:25;107.10;;;53.55;;
76357;SDS011;65185;21.060;105.826;2024-03-17T16:08:02;102.60;;;52.03;;
76357;SDS011;65185;21.060;105.826;2024-03-17T16:10:31;101.93;;;52.15;;
76357;SDS011;65185;21.060;105.826;2024-03-17T16:13:02;105.25;;;53.17;;
76357;SDS011;65185;21.060;105.826;2024-03-17T16:15:30;94.90;;;50.00;;
76357;SDS011;65185;21.060;105.826;2024-03-17T16:17:58;93.65;;;49.60;;
76357;SDS011;65185;21.060;105.826;2024-03-17T16:23:17;99.63;;;50.63;;
76357;SDS011;65185;21.060;105.826;2024-03-17T16:25:45;94.95;;;48.83;;
76357;SDS011;65185;21.060;105.826;2024-03-17T16:28:18;92.50;;;46.03;;
76357;SDS011;65185;21.060;105.826;2024-03-17T16:30:50;99.78;;;50.47;;
76357;SDS011;65185;21.060;105.826;2024-03-17T16:33:23;104.13;;;48.33;;